Time;durP1;ratioP1;P1;durP2;ratioP2;P2;SDS_P1;SDS_P2;PMS_P1;PMS_P2;Temp;Humidity;BMP_temperature;BMP_pressure;BME280_temperature;BME280_humidity;BME280_pressure;Samples;Min_cycle;Max_cycle;Signal;HPM_P1;HPM_P2
2022/05/30 00:01:04;;;;;;;1.90;1.80;;;7.90;99.90;;;;;;481324;247;27955;-71
2022/05/30 00:03:05;;;;;;;2.23;2.10;;;7.80;99.90;;;;;;481344;247;27969;-70
2022/05/30 00:05:06;;;;;;;2.20;2.10;;;7.70;99.90;;;;;;481358;247;27939;-73
2022/05/30 00:07:07;;;;;;;2.23;2.13;;;7.60;99.90;;;;;;481336;247;27999;-70
2022/05/30 00:09:13;;;;;;;2.10;2.00;;;7.50;99.90;;;;;;481336;247;27935;-72
2022/05/30 00:11:10;;;;;;;2.40;2.23;;;7.50;99.90;;;;;;481037;247;27800;-71
2022/05/30 00:13:12;;;;;;;2.10;2.00;;;7.40;99.90;;;;;;481350;247;27791;-72
2022/05/30 00:15:12;;;;;;;2.60;2.40;;;7.50;99.90;;;;;;481342;247;28031;-72
2022/05/30 00:17:14;;;;;;;2.30;2.20;;;7.50;99.90;;;;;;481343;246;27973;-71
2022/05/30 00:19:15;;;;;;;2.60;2.40;;;7.60;99.90;;;;;;481311;247;27868;-72
2022/05/30 00:21:16;;;;;;;2.30;2.10;;;7.70;99.90;;;;;;481370;247;27966;-71
2022/05/30 00:23:17;;;;;;;1.90;1.80;;;7.70;99.90;;;;;;481350;247;28286;-71
2022/05/30 00:25:19;;;;;;;2.20;2.00;;;7.70;99.90;;;;;;481381;247;28527;-73
2022/05/30 00:27:20;;;;;;;1.93;1.83;;;7.60;99.90;;;;;;481348;247;28368;-70
2022/05/30 00:29:21;;;;;;;1.93;1.83;;;7.50;99.90;;;;;;481353;247;27920;-72
2022/05/30 00:31:22;;;;;;;1.80;1.70;;;7.50;99.90;;;;;;481382;247;28066;-70
2022/05/30 00:33:24;;;;;;;2.03;1.93;;;7.40;99.90;;;;;;481359;247;28527;-71
2022/05/30 00:35:25;;;;;;;2.20;2.10;;;7.40;99.90;;;;;;481400;247;28436;-74
2022/05/30 00:37:27;;;;;;;1.73;1.63;;;7.40;99.90;;;;;;481371;247;27893;-71
2022/05/30 00:39:27;;;;;;;2.43;2.23;;;7.40;99.90;;;;;;481328;247;27926;-71
2022/05/30 00:41:29;;;;;;;1.90;1.80;;;7.40;99.90;;;;;;481363;247;27782;-70
2022/05/30 00:43:30;;;;;;;1.80;1.70;;;7.40;99.90;;;;;;481372;247;27965;-71
2022/05/30 00:45:31;;;;;;;1.90;1.80;;;7.30;99.90;;;;;;481389;247;27521;-73
2022/05/30 00:47:32;;;;;;;1.80;1.70;;;7.20;99.90;;;;;;481354;247;27870;-71
2022/05/30 00:49:34;;;;;;;1.80;1.70;;;7.20;99.90;;;;;;481363;247;27900;-72
2022/05/30 00:51:35;;;;;;;2.00;1.90;;;7.10;99.90;;;;;;481366;247;27891;-71
2022/05/30 00:53:38;;;;;;;1.87;1.77;;;7.20;99.90;;;;;;481363;247;27772;-71
2022/05/30 00:55:37;;;;;;;1.80;1.70;;;7.10;99.90;;;;;;481297;247;28157;-71
2022/05/30 00:57:39;;;;;;;1.80;1.70;;;7.20;99.90;;;;;;481357;247;27928;-71
2022/05/30 00:59:40;;;;;;;1.80;1.70;;;7.20;99.90;;;;;;481349;247;27994;-72
2022/05/30 01:01:41;;;;;;;1.50;1.50;;;7.20;99.90;;;;;;481335;247;28032;-71
2022/05/30 01:08:22;;;;;;;2.10;2.00;;;6.70;99.90;;;;;;481395;247;27594;-70
2022/05/30 01:10:23;;;;;;;1.73;1.63;;;6.70;99.90;;;;;;481383;247;27845;-68
2022/05/30 01:12:24;;;;;;;1.87;1.77;;;6.70;99.90;;;;;;481353;247;28513;-71
2022/05/30 01:14:26;;;;;;;2.10;2.00;;;6.80;99.90;;;;;;481338;247;29169;-70
2022/05/30 01:16:27;;;;;;;1.70;1.60;;;6.80;99.90;;;;;;481369;247;28570;-68
2022/05/30 01:18:28;;;;;;;1.97;1.87;;;6.80;99.90;;;;;;481384;247;28513;-69
2022/05/30 01:20:29;;;;;;;2.15;2.05;;;6.80;99.90;;;;;;481349;247;28817;-68
2022/05/30 01:22:31;;;;;;;2.00;1.90;;;6.80;99.90;;;;;;481360;247;27500;-68
2022/05/30 01:24:32;;;;;;;2.20;2.10;;;6.70;99.90;;;;;;481334;247;27459;-70
2022/05/30 01:26:33;;;;;;;2.20;2.10;;;6.80;99.90;;;;;;481354;247;27412;-71
2022/05/30 01:28:34;;;;;;;2.00;1.90;;;6.80;99.90;;;;;;481355;246;27473;-73
2022/05/30 01:30:36;;;;;;;2.20;2.10;;;6.80;99.90;;;;;;481359;247;27971;-70
2022/05/30 01:32:37;;;;;;;2.03;1.93;;;6.80;99.90;;;;;;481299;247;28798;-71
2022/05/30 01:34:38;;;;;;;2.20;2.10;;;6.70;99.90;;;;;;481342;247;28716;-71
2022/05/30 01:36:39;;;;;;;1.67;1.60;;;6.50;99.90;;;;;;481348;247;28186;-71
2022/05/30 01:38:41;;;;;;;1.90;1.80;;;6.50;99.90;;;;;;481342;247;29348;-72
2022/05/30 01:40:42;;;;;;;1.75;1.70;;;6.40;99.90;;;;;;481291;247;27400;-70
2022/05/30 01:42:43;;;;;;;1.60;1.60;;;6.40;99.90;;;;;;481304;247;27499;-71
2022/05/30 01:44:44;;;;;;;2.30;2.20;;;6.50;99.90;;;;;;481386;247;27480;-71
2022/05/30 01:46:46;;;;;;;2.13;2.03;;;6.50;99.90;;;;;;481371;247;28368;-70
2022/05/30 01:48:47;;;;;;;1.90;1.80;;;6.50;99.90;;;;;;481392;247;27874;-71
2022/05/30 01:50:48;;;;;;;1.80;1.70;;;6.40;99.90;;;;;;481350;247;27808;-71
2022/05/30 01:52:49;;;;;;;2.00;1.90;;;6.40;99.90;;;;;;481350;247;27900;-71
2022/05/30 01:54:51;;;;;;;1.90;1.80;;;6.30;99.90;;;;;;481344;247;29161;-68
2022/05/30 01:56:52;;;;;;;2.03;1.93;;;6.30;99.90;;;;;;481370;247;29034;-68
2022/05/30 01:58:53;;;;;;;1.85;1.75;;;6.30;99.90;;;;;;481351;247;29257;-69
2022/05/30 02:00:54;;;;;;;1.90;1.80;;;6.30;99.90;;;;;;481330;247;27492;-68
2022/05/30 02:02:56;;;;;;;1.60;1.60;;;6.20;99.90;;;;;;481349;247;27428;-68
2022/05/30 02:04:57;;;;;;;1.80;1.70;;;6.20;99.90;;;;;;481375;247;28037;-68
2022/05/30 02:06:58;;;;;;;2.00;1.90;;;6.20;99.90;;;;;;481389;247;27456;-69
2022/05/30 02:08:59;;;;;;;1.80;1.80;;;6.20;99.90;;;;;;481348;247;27460;-69
2022/05/30 02:11:01;;;;;;;1.67;1.67;;;6.20;99.90;;;;;;481300;247;27956;-70
2022/05/30 02:13:02;;;;;;;2.03;1.95;;;6.20;99.90;;;;;;481344;247;28032;-72
2022/05/30 02:15:03;;;;;;;1.70;1.70;;;6.10;99.90;;;;;;481361;247;27445;-71
2022/05/30 02:17:06;;;;;;;2.15;2.05;;;6.10;99.90;;;;;;481353;247;27472;-70
2022/05/30 02:19:06;;;;;;;1.70;1.70;;;6.10;99.90;;;;;;481286;247;27554;-72
2022/05/30 02:21:07;;;;;;;1.90;1.80;;;6.10;99.90;;;;;;481351;247;27408;-71
2022/05/30 02:23:08;;;;;;;1.87;1.77;;;6.00;99.90;;;;;;481408;247;27535;-70
2022/05/30 02:25:12;;;;;;;1.92;1.83;;;6.10;99.90;;;;;;481372;247;28957;-71
2022/05/30 02:27:11;;;;;;;1.90;1.80;;;6.10;99.90;;;;;;481220;247;27943;-71
2022/05/30 02:29:12;;;;;;;2.05;1.95;;;6.00;99.90;;;;;;481350;247;27443;-71
2022/05/30 02:31:13;;;;;;;1.67;1.60;;;5.90;99.90;;;;;;481347;247;27414;-70
2022/05/30 02:37:54;;;;;;;1.80;1.70;;;5.90;99.90;;;;;;481352;247;27441;-71
2022/05/30 02:39:55;;;;;;;1.60;1.60;;;5.80;99.90;;;;;;481320;247;27441;-71
2022/05/30 02:41:56;;;;;;;2.08;1.98;;;5.80;99.90;;;;;;481363;247;27462;-68
2022/05/30 02:43:57;;;;;;;2.03;1.92;;;5.70;99.90;;;;;;481350;247;27408;-68
2022/05/30 02:45:58;;;;;;;1.90;1.80;;;5.70;99.90;;;;;;481335;247;27555;-71
2022/05/30 02:48:00;;;;;;;1.90;1.80;;;5.70;99.90;;;;;;481338;247;27414;-71
2022/05/30 02:50:01;;;;;;;1.95;1.85;;;5.70;99.90;;;;;;481319;247;27911;-71
2022/05/30 02:52:02;;;;;;;2.00;1.90;;;5.70;99.90;;;;;;481340;247;28199;-73
2022/05/30 02:54:03;;;;;;;2.35;2.05;;;5.70;99.90;;;;;;481358;247;27476;-71
2022/05/30 02:56:05;;;;;;;1.90;1.80;;;5.70;99.90;;;;;;481329;247;27555;-71
2022/05/30 02:58:06;;;;;;;1.90;1.80;;;5.60;99.90;;;;;;481331;247;27401;-70
2022/05/30 03:00:07;;;;;;;3.87;1.83;;;5.70;99.90;;;;;;481191;247;27429;-71
2022/05/30 03:02:08;;;;;;;2.00;1.90;;;5.70;99.90;;;;;;481215;247;27562;-72
2022/05/30 03:04:10;;;;;;;2.22;2.12;;;5.50;99.90;;;;;;481149;247;27877;-71
2022/05/30 03:06:11;;;;;;;2.15;2.05;;;5.40;99.90;;;;;;481172;247;27927;-71
2022/05/30 03:08:12;;;;;;;2.00;1.90;;;5.40;99.90;;;;;;481336;247;28258;-71
2022/05/30 03:10:14;;;;;;;2.10;2.00;;;5.50;99.90;;;;;;481372;247;27406;-71
2022/05/30 03:12:15;;;;;;;2.20;2.10;;;5.60;99.90;;;;;;481347;247;27527;-72
2022/05/30 03:14:16;;;;;;;2.10;2.00;;;5.50;99.90;;;;;;481336;247;27508;-71
2022/05/30 03:16:17;;;;;;;1.70;1.60;;;5.50;99.90;;;;;;481334;247;27565;-71
2022/05/30 03:18:19;;;;;;;1.90;1.80;;;5.40;99.90;;;;;;481328;247;27497;-70
2022/05/30 03:20:20;;;;;;;1.98;1.87;;;5.40;99.90;;;;;;481337;247;27924;-71
2022/05/30 03:22:21;;;;;;;2.12;2.03;;;5.40;99.90;;;;;;481366;247;27927;-73
2022/05/30 03:24:22;;;;;;;2.05;1.95;;;5.40;99.90;;;;;;481364;247;27949;-71
2022/05/30 03:26:24;;;;;;;1.98;1.87;;;5.40;99.90;;;;;;481334;247;27441;-71
2022/05/30 03:28:25;;;;;;;2.05;1.95;;;5.30;99.90;;;;;;481362;247;27488;-70
2022/05/30 03:30:26;;;;;;;2.10;2.00;;;5.40;99.90;;;;;;481335;247;27507;-71
2022/05/30 03:32:27;;;;;;;1.80;1.80;;;5.40;99.90;;;;;;481362;247;27451;-73
2022/05/30 03:34:29;;;;;;;2.00;1.90;;;5.40;99.90;;;;;;481350;247;27530;-70
2022/05/30 03:36:30;;;;;;;2.15;2.05;;;5.30;99.90;;;;;;481334;247;28011;-71
2022/05/30 03:38:31;;;;;;;1.95;1.85;;;5.30;99.90;;;;;;481336;247;27861;-71
2022/05/30 03:40:32;;;;;;;2.65;2.10;;;5.30;99.90;;;;;;481106;247;27908;-71
2022/05/30 03:42:34;;;;;;;1.98;1.87;;;5.30;99.90;;;;;;481373;247;27429;-73
2022/05/30 03:44:35;;;;;;;2.28;2.17;;;5.30;99.90;;;;;;481356;247;27402;-71
2022/05/30 03:46:36;;;;;;;2.20;2.10;;;5.30;99.90;;;;;;481351;247;27433;-71
2022/05/30 03:48:37;;;;;;;2.00;1.90;;;5.40;99.90;;;;;;481361;247;27400;-71
2022/05/30 03:50:39;;;;;;;2.10;2.00;;;5.40;99.90;;;;;;481339;247;27548;-71
2022/05/30 03:52:40;;;;;;;2.05;1.95;;;5.40;99.90;;;;;;481342;247;27908;-72
2022/05/30 03:54:41;;;;;;;2.15;2.05;;;5.50;99.90;;;;;;481367;247;27860;-70
2022/05/30 03:56:42;;;;;;;2.00;1.90;;;5.50;99.90;;;;;;481340;247;27930;-71
2022/05/30 03:58:44;;;;;;;2.10;2.00;;;5.50;99.90;;;;;;481343;247;27542;-71
2022/05/30 04:00:45;;;;;;;2.00;1.90;;;5.60;99.90;;;;;;481345;247;27416;-71
2022/05/30 04:02:49;;;;;;;2.20;2.10;;;5.60;99.90;;;;;;481362;247;27447;-71
2022/05/30 04:04:50;;;;;;;1.90;1.80;;;5.60;99.90;;;;;;481359;247;27534;-73
2022/05/30 04:06:51;;;;;;;1.85;1.80;;;5.60;99.90;;;;;;481347;247;27956;-71
2022/05/30 04:08:53;;;;;;;2.10;2.00;;;5.50;99.90;;;;;;481364;247;27910;-71
2022/05/30 04:10:54;;;;;;;2.22;2.03;;;5.40;99.90;;;;;;481356;247;27491;-71
2022/05/30 04:12:55;;;;;;;2.10;2.00;;;5.50;99.90;;;;;;481320;247;27508;-71
2022/05/30 04:14:56;;;;;;;2.30;2.20;;;5.60;99.90;;;;;;481375;247;27454;-73
2022/05/30 04:16:58;;;;;;;2.10;2.00;;;5.70;99.90;;;;;;481349;247;27396;-71
2022/05/30 04:19:01;;;;;;;1.95;1.85;;;5.80;99.90;;;;;;481337;247;27457;-72
2022/05/30 04:21:00;;;;;;;2.05;1.95;;;5.80;99.90;;;;;;481171;247;27936;-71
2022/05/30 04:23:02;;;;;;;1.95;1.80;;;5.70;99.90;;;;;;481350;247;27852;-71
2022/05/30 04:25:03;;;;;;;2.37;2.17;;;5.70;99.90;;;;;;481368;247;27436;-72
2022/05/30 04:27:04;;;;;;;2.00;1.90;;;5.60;99.90;;;;;;481372;247;27410;-71
2022/05/30 04:29:07;;;;;;;2.20;2.10;;;5.50;99.90;;;;;;481314;247;27468;-71
2022/05/30 04:31:06;;;;;;;2.12;1.92;;;5.40;99.90;;;;;;481239;247;27400;-71
2022/05/30 04:33:08;;;;;;;2.10;2.00;;;5.50;99.90;;;;;;481356;247;27435;-70
2022/05/30 04:35:09;;;;;;;2.10;2.00;;;5.50;99.90;;;;;;481375;247;27944;-74
2022/05/30 04:37:10;;;;;;;2.00;1.90;;;5.40;99.90;;;;;;481360;247;27943;-71
2022/05/30 04:39:12;;;;;;;2.12;2.03;;;5.40;99.90;;;;;;481348;247;27500;-72
2022/05/30 04:41:13;;;;;;;2.25;2.15;;;5.50;99.90;;;;;;481320;247;27409;-68
2022/05/30 04:43:14;;;;;;;2.10;2.00;;;5.50;99.90;;;;;;481278;247;27401;-71
2022/05/30 04:45:15;;;;;;;2.20;2.10;;;5.50;99.90;;;;;;481361;247;27511;-72
2022/05/30 04:47:17;;;;;;;2.00;1.90;;;5.60;99.90;;;;;;481350;247;27484;-71
2022/05/30 04:49:18;;;;;;;2.20;2.10;;;5.60;99.90;;;;;;481313;247;27915;-72
2022/05/30 04:51:19;;;;;;;2.20;2.10;;;5.60;99.90;;;;;;481359;247;28738;-71
2022/05/30 04:53:20;;;;;;;2.20;2.10;;;5.70;99.90;;;;;;481359;247;27465;-71
2022/05/30 04:55:22;;;;;;;2.10;2.00;;;5.70;99.90;;;;;;481357;247;27431;-72
2022/05/30 04:57:23;;;;;;;2.22;2.12;;;5.80;99.90;;;;;;481333;247;27420;-71
2022/05/30 04:59:24;;;;;;;2.00;1.90;;;6.00;99.90;;;;;;481329;247;27534;-70
2022/05/30 05:01:27;;;;;;;2.00;1.90;;;6.20;99.90;;;;;;481210;247;27795;-74
2022/05/30 05:03:27;;;;;;;2.17;2.08;;;6.30;99.90;;;;;;481303;247;27869;-71
2022/05/30 05:05:28;;;;;;;1.90;1.80;;;6.30;99.90;;;;;;481359;247;28011;-72
2022/05/30 05:07:29;;;;;;;2.08;1.98;;;6.30;99.90;;;;;;481321;247;27532;-71
2022/05/30 05:09:32;;;;;;;2.50;2.30;;;6.40;99.90;;;;;;481331;247;27520;-71
2022/05/30 05:11:32;;;;;;;2.20;2.10;;;6.10;99.90;;;;;;481292;247;27556;-72
2022/05/30 05:13:33;;;;;;;2.47;2.37;;;6.00;99.90;;;;;;481371;247;27423;-71
2022/05/30 05:15:34;;;;;;;2.40;2.30;;;6.00;99.90;;;;;;481383;247;27554;-72
2022/05/30 05:17:35;;;;;;;2.50;2.33;;;6.20;99.90;;;;;;481356;247;27408;-69
2022/05/30 05:19:37;;;;;;;2.50;2.40;;;6.20;99.90;;;;;;481287;247;27959;-71
2022/05/30 05:21:38;;;;;;;4.00;3.65;;;6.40;99.90;;;;;;481358;247;27548;-71
2022/05/30 05:23:39;;;;;;;5.22;4.72;;;6.80;99.90;;;;;;481374;247;27436;-69
2022/05/30 05:25:40;;;;;;;5.78;5.00;;;7.00;99.90;;;;;;481366;247;27436;-73
2022/05/30 05:27:42;;;;;;;4.40;4.00;;;7.20;99.90;;;;;;481352;247;27400;-71
2022/05/30 05:29:43;;;;;;;5.43;4.93;;;7.30;99.90;;;;;;481358;247;27671;-69
2022/05/30 05:31:44;;;;;;;5.90;4.63;;;7.40;99.90;;;;;;481325;247;28612;-71
2022/05/30 05:33:45;;;;;;;6.07;4.80;;;7.60;99.90;;;;;;481395;247;27960;-71
2022/05/30 05:35:47;;;;;;;5.50;4.23;;;7.70;99.90;;;;;;481332;247;27822;-72
2022/05/30 05:37:48;;;;;;;4.50;4.10;;;7.80;99.90;;;;;;481352;247;28453;-71
2022/05/30 05:39:49;;;;;;;4.13;3.73;;;7.90;99.90;;;;;;481277;247;28526;-72
2022/05/30 05:41:51;;;;;;;4.40;4.03;;;7.90;99.90;;;;;;481332;247;28015;-74
2022/05/30 05:43:54;;;;;;;6.27;3.70;;;7.90;99.90;;;;;;481361;247;27980;-70
2022/05/30 05:45:56;;;;;;;4.53;3.70;;;8.00;99.90;;;;;;481383;247;28008;-72
2022/05/30 05:47:57;;;;;;;4.30;3.90;;;8.10;99.90;;;;;;481371;247;28047;-72
2022/05/30 05:49:58;;;;;;;4.60;4.20;;;8.20;99.90;;;;;;481376;247;27867;-71
2022/05/30 05:51:59;;;;;;;3.60;3.30;;;8.30;99.90;;;;;;481346;247;27960;-71
2022/05/30 05:54:01;;;;;;;4.10;3.70;;;8.30;99.90;;;;;;481339;246;28753;-71
2022/05/30 05:56:02;;;;;;;4.20;3.77;;;8.40;99.90;;;;;;481330;247;28456;-71
2022/05/30 05:58:03;;;;;;;4.87;3.50;;;8.40;99.90;;;;;;481361;247;28400;-72
2022/05/30 06:00:04;;;;;;;4.83;3.97;;;8.50;99.90;;;;;;481346;246;28048;-71
2022/05/30 06:02:06;;;;;;;3.83;3.60;;;8.50;99.90;;;;;;481316;247;28494;-72
2022/05/30 06:04:07;;;;;;;3.73;3.43;;;8.60;99.90;;;;;;481341;247;28566;-71
2022/05/30 06:06:08;;;;;;;3.40;3.10;;;8.60;99.90;;;;;;481383;247;27646;-71
2022/05/30 06:08:11;;;;;;;3.50;3.20;;;8.70;99.90;;;;;;481350;247;27891;-73
2022/05/30 06:10:11;;;;;;;3.80;3.40;;;8.80;99.90;;;;;;481242;247;27882;-71
2022/05/30 06:12:12;;;;;;;3.60;3.00;;;8.90;99.90;;;;;;481320;247;27927;-71
2022/05/30 06:14:13;;;;;;;4.33;3.30;;;8.90;99.90;;;;;;481362;247;27958;-74
2022/05/30 06:16:14;;;;;;;3.13;2.93;;;8.90;99.90;;;;;;481352;247;27872;-71
2022/05/30 06:18:16;;;;;;;3.13;2.93;;;9.10;99.90;;;;;;481346;247;27967;-72
2022/05/30 06:20:17;;;;;;;4.27;3.37;;;9.20;99.90;;;;;;481353;247;27709;-71
2022/05/30 06:22:18;;;;;;;3.33;3.10;;;9.20;99.90;;;;;;481367;246;27920;-71
2022/05/30 06:24:19;;;;;;;3.80;3.00;;;9.40;99.90;;;;;;481381;247;27913;-74
2022/05/30 06:26:21;;;;;;;7.43;3.00;;;9.40;99.90;;;;;;481378;247;28001;-72
2022/05/30 06:28:22;;;;;;;3.40;3.10;;;9.30;99.90;;;;;;481364;247;28126;-72
2022/05/30 06:30:23;;;;;;;3.20;2.87;;;9.40;99.90;;;;;;481338;247;27973;-70
2022/05/30 06:32:24;;;;;;;3.40;3.20;;;9.50;99.90;;;;;;481365;247;27979;-72
2022/05/30 06:34:26;;;;;;;3.10;2.80;;;9.40;99.90;;;;;;481349;247;29412;-71
2022/05/30 06:36:27;;;;;;;3.40;2.77;;;9.60;99.90;;;;;;481367;247;27995;-72
2022/05/30 06:38:28;;;;;;;3.10;2.80;;;9.70;99.90;;;;;;481373;247;28161;-73
2022/05/30 06:40:29;;;;;;;2.97;2.77;;;9.60;99.90;;;;;;481343;247;28277;-71
2022/05/30 06:42:31;;;;;;;4.13;3.07;;;9.60;99.90;;;;;;481347;247;28418;-71
2022/05/30 06:44:32;;;;;;;3.00;2.77;;;9.70;99.90;;;;;;481357;247;27761;-71
2022/05/30 06:46:34;;;;;;;2.53;2.40;;;9.80;99.90;;;;;;481344;247;27774;-71
2022/05/30 06:48:34;;;;;;;4.50;2.80;;;9.70;99.90;;;;;;481357;247;28052;-74
2022/05/30 06:50:36;;;;;;;4.47;2.50;;;9.70;99.90;;;;;;481371;247;27849;-71
2022/05/30 06:52:38;;;;;;;2.57;2.30;;;9.80;99.90;;;;;;481348;247;27896;-72
2022/05/30 06:54:38;;;;;;;3.70;2.57;;;9.90;99.90;;;;;;481316;247;27856;-71
2022/05/30 06:58:11;;;;;;;4.70;2.70;;;10.20;99.90;;;;;;481321;247;28307;-72
2022/05/30 06:58:41;;;;;;;3.40;2.50;;;10.20;99.90;;;;;;479850;247;27925;-74
2022/05/30 07:00:42;;;;;;;3.03;2.83;;;10.20;99.90;;;;;;481354;247;27745;-69
2022/05/30 07:02:44;;;;;;;2.50;2.30;;;10.10;99.90;;;;;;481311;247;27923;-72
2022/05/30 07:04:44;;;;;;;2.33;2.17;;;10.20;99.90;;;;;;481344;247;27468;-71
2022/05/30 07:06:46;;;;;;;2.80;2.60;;;10.30;99.90;;;;;;481308;247;28420;-72
2022/05/30 07:08:47;;;;;;;2.90;2.47;;;10.40;99.90;;;;;;481350;247;28293;-75
2022/05/30 07:10:48;;;;;;;2.70;2.30;;;10.40;99.90;;;;;;481334;247;28373;-71
2022/05/30 07:12:49;;;;;;;2.07;1.90;;;10.50;99.90;;;;;;481328;247;28155;-72
2022/05/30 07:14:51;;;;;;;2.40;2.20;;;10.50;99.90;;;;;;481331;247;27880;-71
2022/05/30 07:16:52;;;;;;;3.13;2.47;;;10.70;99.90;;;;;;481317;247;27889;-71
2022/05/30 07:18:53;;;;;;;2.97;2.70;;;10.90;99.90;;;;;;481360;247;28002;-71
2022/05/30 07:20:55;;;;;;;2.50;2.30;;;10.90;99.90;;;;;;481351;247;27747;-71
2022/05/30 07:22:56;;;;;;;2.60;1.93;;;11.00;99.90;;;;;;481360;247;27917;-73
2022/05/30 07:24:57;;;;;;;2.60;2.20;;;11.00;99.90;;;;;;481328;247;27764;-72
2022/05/30 07:26:58;;;;;;;2.20;2.10;;;11.20;99.90;;;;;;481349;247;27928;-72
2022/05/30 07:28:59;;;;;;;2.07;1.97;;;11.20;99.90;;;;;;481358;247;28086;-74
2022/05/30 07:31:01;;;;;;;3.37;2.20;;;11.30;99.90;;;;;;481355;247;28236;-72
2022/05/30 07:33:02;;;;;;;2.03;1.80;;;11.30;99.90;;;;;;481321;247;28507;-72
2022/05/30 07:35:03;;;;;;;2.03;1.60;;;11.40;99.90;;;;;;481326;247;28445;-72
2022/05/30 07:37:04;;;;;;;2.70;2.10;;;11.50;99.90;;;;;;481332;247;28732;-72
2022/05/30 07:39:06;;;;;;;1.93;1.83;;;11.60;99.90;;;;;;481348;247;28141;-74
2022/05/30 07:41:07;;;;;;;2.33;1.97;;;11.70;99.90;;;;;;481366;247;28101;-71
2022/05/30 07:43:08;;;;;;;2.40;2.13;;;11.80;99.90;;;;;;481351;247;28171;-72
2022/05/30 07:45:09;;;;;;;2.20;2.00;;;11.80;99.90;;;;;;481362;247;28094;-71
2022/05/30 07:47:11;;;;;;;2.03;1.93;;;11.80;99.90;;;;;;481369;247;28045;-72
2022/05/30 07:49:12;;;;;;;2.27;1.70;;;11.90;99.90;;;;;;481388;247;28507;-74
2022/05/30 07:51:13;;;;;;;2.23;1.80;;;11.90;99.90;;;;;;481394;246;28079;-72
2022/05/30 07:53:14;;;;;;;2.47;2.27;;;11.90;99.90;;;;;;481380;247;28432;-72
2022/05/30 07:55:16;;;;;;;2.00;1.90;;;12.10;99.90;;;;;;481366;247;28526;-72
2022/05/30 07:57:18;;;;;;;2.40;2.20;;;;;;;;;;481351;247;28833;-74
2022/05/30 07:59:20;;;;;;;2.70;1.77;;;12.40;99.90;;;;;;481382;247;27315;-71
2022/05/30 08:01:21;;;;;;;1.87;1.77;;;12.70;99.90;;;;;;481300;247;28364;-72
2022/05/30 08:03:24;;;;;;;2.50;1.80;;;12.70;99.90;;;;;;481325;247;28457;-72
2022/05/30 08:05:23;;;;;;;1.90;1.80;;;12.60;99.90;;;;;;481228;247;28254;-72
2022/05/30 08:07:24;;;;;;;1.90;1.80;;;12.70;99.90;;;;;;481346;247;28207;-72
2022/05/30 08:09:26;;;;;;;2.20;2.00;;;12.90;99.90;;;;;;481356;247;28608;-72
2022/05/30 08:11:27;;;;;;;2.43;2.23;;;13.00;99.90;;;;;;481366;247;28635;-73
2022/05/30 08:13:28;;;;;;;2.10;2.00;;;12.70;99.90;;;;;;481353;247;28727;-72
2022/05/30 08:15:30;;;;;;;1.80;1.70;;;12.80;99.90;;;;;;481346;247;28171;-72
2022/05/30 08:17:31;;;;;;;3.37;1.97;;;13.10;99.90;;;;;;481339;247;28249;-71
2022/05/30 08:19:32;;;;;;;1.90;1.80;;;13.60;99.90;;;;;;481358;247;28347;-72
2022/05/30 08:21:33;;;;;;;2.13;1.97;;;13.60;99.90;;;;;;481347;247;28441;-74
2022/05/30 08:23:34;;;;;;;2.00;1.87;;;13.70;99.90;;;;;;481315;247;28512;-72
2022/05/30 08:25:36;;;;;;;2.30;2.20;;;13.70;99.90;;;;;;481334;247;28158;-72
2022/05/30 08:27:37;;;;;;;4.00;1.70;;;13.40;99.90;;;;;;481317;247;28877;-72
2022/05/30 08:29:38;;;;;;;2.83;2.07;;;13.60;99.90;;;;;;481324;247;28487;-72
2022/05/30 08:31:39;;;;;;;2.70;1.83;;;13.70;99.90;;;;;;481347;247;28791;-74
2022/05/30 08:33:41;;;;;;;1.70;1.60;;;13.80;99.90;;;;;;481328;247;29275;-72
2022/05/30 08:35:42;;;;;;;2.03;1.90;;;13.90;99.90;;;;;;481331;247;28850;-73
2022/05/30 08:37:43;;;;;;;1.70;1.60;;;13.60;99.90;;;;;;481306;247;31165;-72
2022/05/30 08:42:04;;;;;;;1.83;1.73;;;13.10;99.90;;;;;;481357;247;28492;-72
2022/05/30 08:44:05;;;;;;;2.40;2.00;;;13.10;99.90;;;;;;481343;247;28467;-72
2022/05/30 08:46:07;;;;;;;1.90;1.80;;;13.00;99.90;;;;;;481365;247;28348;-72
2022/05/30 08:48:08;;;;;;;2.10;1.90;;;13.10;99.90;;;;;;481362;247;28794;-74
2022/05/30 08:50:09;;;;;;;1.80;1.70;;;13.00;99.90;;;;;;481378;247;28765;-72
2022/05/30 08:52:10;;;;;;;1.60;1.53;;;13.00;99.90;;;;;;481328;247;28267;-72
2022/05/30 08:54:12;;;;;;;1.87;1.77;;;12.90;99.90;;;;;;481301;247;28252;-71
2022/05/30 08:56:13;;;;;;;1.70;1.60;;;12.90;99.90;;;;;;481326;247;28456;-72
2022/05/30 08:58:14;;;;;;;1.70;1.60;;;12.80;99.90;;;;;;481364;247;28994;-72
2022/05/30 09:00:15;;;;;;;2.00;1.87;;;12.90;99.90;;;;;;481335;247;28802;-72
2022/05/30 09:02:17;;;;;;;2.20;1.90;;;12.90;99.90;;;;;;481345;247;29058;-73
2022/05/30 09:04:18;;;;;;;1.90;1.80;;;13.00;99.90;;;;;;481320;246;29661;-72
2022/05/30 09:06:19;;;;;;;1.90;1.43;;;13.20;99.90;;;;;;481294;247;28326;-72
2022/05/30 09:08:20;;;;;;;1.53;1.47;;;13.40;99.90;;;;;;481325;247;28477;-73
2022/05/30 09:10:22;;;;;;;1.60;1.50;;;13.50;99.90;;;;;;481306;247;28304;-72
2022/05/30 09:12:24;;;;;;;1.80;1.70;;;13.30;99.90;;;;;;481346;247;28915;-73
2022/05/30 09:14:24;;;;;;;2.47;1.80;;;13.10;99.90;;;;;;481261;247;28793;-73
2022/05/30 09:16:25;;;;;;;1.80;1.70;;;13.20;99.90;;;;;;481365;247;28353;-72
2022/05/30 09:18:27;;;;;;;1.40;1.30;;;13.20;99.90;;;;;;481379;247;28558;-73
2022/05/30 09:20:28;;;;;;;1.50;1.50;;;13.20;99.90;;;;;;481370;247;28359;-74
2022/05/30 09:22:29;;;;;;;1.80;1.70;;;13.30;99.90;;;;;;481399;247;28946;-72
2022/05/30 09:24:30;;;;;;;1.60;1.50;;;13.30;99.90;;;;;;481380;247;29113;-72
2022/05/30 09:26:32;;;;;;;1.60;1.50;;;13.20;99.90;;;;;;481402;247;28879;-72
2022/05/30 09:28:33;;;;;;;1.50;1.40;;;13.30;99.90;;;;;;478842;247;47285;-72
2022/05/30 09:30:34;;;;;;;1.80;1.70;;;13.20;99.90;;;;;;481372;247;28739;-72
2022/05/30 09:32:35;;;;;;;1.70;1.60;;;13.30;99.90;;;;;;481354;247;28506;-72
2022/05/30 09:34:37;;;;;;;1.60;1.50;;;13.40;99.90;;;;;;481383;247;28864;-72
2022/05/30 09:36:38;;;;;;;1.63;1.53;;;13.60;99.90;;;;;;481374;247;28752;-72
2022/05/30 09:38:39;;;;;;;1.63;1.53;;;13.60;99.90;;;;;;481357;247;28853;-73
2022/05/30 09:40:40;;;;;;;1.73;1.63;;;13.70;99.90;;;;;;481366;247;28391;-72
2022/05/30 09:42:43;;;;;;;1.83;1.60;;;13.70;99.90;;;;;;481353;247;28614;-72
2022/05/30 09:44:44;;;;;;;1.67;1.57;;;13.90;99.90;;;;;;481251;247;28780;-72
2022/05/30 09:46:44;;;;;;;2.27;1.77;;;14.00;99.90;;;;;;481237;247;28746;-72
2022/05/30 09:48:45;;;;;;;2.73;1.90;;;14.30;99.90;;;;;;481363;247;29312;-73
2022/05/30 09:50:47;;;;;;;1.57;1.47;;;14.50;99.90;;;;;;481356;247;29229;-73
2022/05/30 09:52:48;;;;;;;7.30;2.63;;;14.40;99.90;;;;;;481341;247;29283;-73
2022/05/30 09:54:49;;;;;;;6.60;3.00;;;14.40;99.90;;;;;;481379;247;28796;-72
2022/05/30 09:56:50;;;;;;;2.33;2.10;;;14.30;99.90;;;;;;481368;247;28860;-73
2022/05/30 09:58:53;;;;;;;2.90;2.43;;;14.30;99.90;;;;;;481344;247;28885;-73
2022/05/30 10:00:53;;;;;;;2.77;2.30;;;14.20;99.90;;;;;;481306;247;28825;-72
2022/05/30 10:02:54;;;;;;;3.17;2.10;;;14.10;99.90;;;;;;481341;247;28786;-72
2022/05/30 10:04:56;;;;;;;2.23;2.03;;;14.40;99.90;;;;;;481353;247;29252;-72
2022/05/30 10:06:57;;;;;;;1.93;1.80;;;14.70;99.90;;;;;;481363;247;28762;-73
2022/05/30 10:08:58;;;;;;;2.10;1.90;;;15.00;99.90;;;;;;481363;247;28805;-73
2022/05/30 10:11:01;;;;;;;2.10;1.90;;;14.80;99.90;;;;;;481343;247;28877;-72
2022/05/30 10:13:01;;;;;;;1.90;1.80;;;14.40;99.90;;;;;;481242;247;29283;-73
2022/05/30 10:15:02;;;;;;;1.70;1.60;;;14.50;99.90;;;;;;481369;247;29414;-74
2022/05/30 10:17:03;;;;;;;3.00;2.20;;;14.50;99.90;;;;;;481354;247;29329;-72
2022/05/30 10:19:04;;;;;;;2.47;1.90;;;14.60;99.90;;;;;;481367;247;28790;-72
2022/05/30 10:21:05;;;;;;;2.20;2.10;;;14.30;99.90;;;;;;481325;247;28729;-71
2022/05/30 10:30:05;;;;;;;1.40;1.30;;;14.20;99.90;;;;;;481340;247;28763;-72
2022/05/30 10:32:06;;;;;;;1.50;1.40;;;14.30;99.90;;;;;;481358;247;28813;-74
2022/05/30 10:34:08;;;;;;;1.40;1.40;;;14.40;99.90;;;;;;481231;247;28807;-72
2022/05/30 10:36:09;;;;;;;2.00;1.77;;;14.50;99.90;;;;;;481315;247;28813;-73
2022/05/30 10:38:10;;;;;;;4.30;1.70;;;14.30;99.90;;;;;;481330;247;28910;-75
2022/05/30 10:40:11;;;;;;;1.70;1.60;;;14.30;99.90;;;;;;481306;247;28887;-72
2022/05/30 10:42:13;;;;;;;2.33;1.83;;;14.30;99.90;;;;;;481334;247;29344;-73
2022/05/30 10:44:15;;;;;;;2.10;1.47;;;14.20;99.90;;;;;;481350;247;29227;-73
2022/05/30 10:46:15;;;;;;;2.10;1.57;;;14.20;99.90;;;;;;481293;247;29279;-73
2022/05/30 10:48:18;;;;;;;1.50;1.40;;;14.00;99.90;;;;;;481366;247;28812;-74
2022/05/30 10:50:18;;;;;;;1.60;1.50;;;13.80;99.90;;;;;;481284;247;28755;-72
2022/05/30 10:52:19;;;;;;;2.00;1.90;;;13.70;99.90;;;;;;481357;247;28876;-73
2022/05/30 10:54:20;;;;;;;1.50;1.50;;;13.70;99.90;;;;;;481369;247;28837;-73